Time;durP1;ratioP1;P1;durP2;ratioP2;P2;SDS_P1;SDS_P2;PMS_P1;PMS_P2;Temp;Humidity;BMP_temperature;BMP_pressure;BME280_temperature;BME280_humidity;BME280_pressure;Samples;Min_cycle;Max_cycle;Signal;HPM_P1;HPM_P2
2023/03/24 00:01:13;;;;;;;10.88;5.50;;;11.30;99.90;;;;;;5032522;28;20052;-76
2023/03/24 00:03:39;;;;;;;13.98;6.07;;;11.20;99.90;;;;;;5034039;28;20042;-76
2023/03/24 00:06:06;;;;;;;12.63;6.43;;;11.30;99.90;;;;;;5016062;28;20048;-76
2023/03/24 00:08:35;;;;;;;12.40;5.90;;;11.30;99.90;;;;;;5046036;28;20045;-76
2023/03/24 00:11:03;;;;;;;15.18;6.50;;;11.30;99.90;;;;;;5035756;28;20047;-76
2023/03/24 00:13:31;;;;;;;12.85;5.82;;;11.30;99.90;;;;;;5019169;28;20029;-76
2023/03/24 00:15:57;;;;;;;10.90;5.65;;;11.30;99.90;;;;;;5035348;28;20043;-76
2023/03/24 00:18:24;;;;;;;13.88;6.60;;;11.30;99.90;;;;;;5018918;28;20037;-77
2023/03/24 00:20:57;;;;;;;11.32;5.70;;;11.30;99.90;;;;;;5052797;28;20551;-76
2023/03/24 00:23:31;;;;;;;14.52;7.38;;;11.30;99.90;;;;;;5018694;28;20041;-76
2023/03/24 00:26:11;;;;;;;13.02;6.82;;;11.30;99.90;;;;;;5053730;28;20041;-76
2023/03/24 00:28:37;;;;;;;11.90;6.53;;;11.30;99.90;;;;;;5052622;28;20033;-76
2023/03/24 00:31:05;;;;;;;14.77;6.78;;;11.30;99.90;;;;;;5035601;28;20045;-75
2023/03/24 00:33:33;;;;;;;16.15;7.05;;;11.30;99.90;;;;;;5035557;28;20040;-75
2023/03/24 00:36:00;;;;;;;12.57;7.03;;;11.20;99.90;;;;;;5019678;28;20441;-74
2023/03/24 00:38:26;;;;;;;14.02;6.85;;;11.20;99.90;;;;;;4998957;28;20045;-75
2023/03/24 00:40:53;;;;;;;12.55;6.50;;;11.20;99.90;;;;;;5015580;28;20110;-75
2023/03/24 00:43:19;;;;;;;11.50;6.18;;;11.20;99.90;;;;;;5014452;28;20048;-75
2023/03/24 00:45:45;;;;;;;11.63;6.07;;;11.20;99.90;;;;;;4999181;28;20046;-75
2023/03/24 00:48:16;;;;;;;12.95;5.90;;;11.20;99.90;;;;;;5032541;28;20048;-76
2023/03/24 00:50:47;;;;;;;10.57;6.15;;;11.20;99.90;;;;;;5014885;28;20041;-75
2023/03/24 00:53:17;;;;;;;11.75;6.55;;;11.20;99.90;;;;;;5032643;28;20049;-76
2023/03/24 00:55:45;;;;;;;14.48;6.55;;;11.20;99.90;;;;;;5015613;28;20123;-76
2023/03/24 00:58:16;;;;;;;13.52;6.07;;;11.20;99.90;;;;;;5013776;28;20040;-77
2023/03/24 01:00:47;;;;;;;12.45;5.32;;;11.20;99.90;;;;;;5015475;28;20457;-76
2023/03/24 01:03:13;;;;;;;12.45;6.07;;;11.20;99.90;;;;;;4997657;28;20060;-75
2023/03/24 01:05:40;;;;;;;12.00;6.35;;;11.20;99.90;;;;;;4998725;28;20037;-76
2023/03/24 01:08:07;;;;;;;11.25;6.10;;;11.20;99.90;;;;;;5022925;28;20572;-76
2023/03/24 01:10:41;;;;;;;16.73;7.35;;;11.20;99.90;;;;;;5051854;28;20509;-76
2023/03/24 01:13:07;;;;;;;11.00;5.43;;;11.20;99.90;;;;;;5033719;28;20033;-76
2023/03/24 01:15:35;;;;;;;11.60;5.07;;;11.20;99.90;;;;;;5052383;28;20040;-76
2023/03/24 01:18:01;;;;;;;9.27;5.55;;;11.20;99.90;;;;;;5051206;28;20393;-76
2023/03/24 01:20:31;;;;;;;10.88;6.75;;;11.20;99.90;;;;;;5034544;28;20040;-76
2023/03/24 01:22:58;;;;;;;10.23;5.63;;;11.20;99.90;;;;;;5034942;28;20037;-76
2023/03/24 01:25:24;;;;;;;11.10;5.93;;;11.20;99.90;;;;;;5033607;28;20045;-76
2023/03/24 01:27:51;;;;;;;10.52;4.82;;;11.20;99.90;;;;;;5033853;28;20036;-76
2023/03/24 01:30:22;;;;;;;10.40;5.10;;;11.20;99.90;;;;;;5033904;28;20041;-76
2023/03/24 01:32:49;;;;;;;9.27;4.72;;;11.20;99.90;;;;;;5051241;28;20029;-76
2023/03/24 01:35:15;;;;;;;10.52;5.32;;;11.20;99.90;;;;;;5051855;28;20041;-76
2023/03/24 01:37:41;;;;;;;11.05;5.85;;;11.20;99.90;;;;;;5052062;28;20041;-76
2023/03/24 01:40:08;;;;;;;9.48;5.47;;;11.20;99.90;;;;;;5033019;28;20051;-76
2023/03/24 01:42:35;;;;;;;10.30;6.35;;;11.30;99.90;;;;;;5052085;28;20048;-77
2023/03/24 01:45:38;;;;;;;8.88;5.20;;;11.30;99.90;;;;;;5034140;28;20068;-76
2023/03/24 01:48:07;;;;;;;13.07;5.47;;;11.30;99.90;;;;;;5033854;28;20115;-76
2023/03/24 01:50:33;;;;;;;12.50;5.22;;;11.20;99.90;;;;;;5052242;28;20442;-76
2023/03/24 01:53:00;;;;;;;9.93;5.75;;;11.30;99.90;;;;;;5017077;28;20080;-76
2023/03/24 01:55:28;;;;;;;10.82;5.68;;;11.30;99.90;;;;;;5034258;28;20045;-77
2023/03/24 01:57:58;;;;;;;9.40;5.13;;;11.30;99.90;;;;;;5028662;28;20041;-77
2023/03/24 02:00:24;;;;;;;10.40;5.68;;;11.30;99.90;;;;;;4997089;28;20456;-76
2023/03/24 02:03:02;;;;;;;10.00;5.28;;;11.30;99.90;;;;;;5032082;28;20469;-76
2023/03/24 02:05:31;;;;;;;10.32;5.95;;;11.30;99.90;;;;;;5031737;28;20444;-76
2023/03/24 02:08:10;;;;;;;9.65;5.55;;;11.30;99.90;;;;;;5036031;28;20025;-76
2023/03/24 02:10:37;;;;;;;10.98;6.05;;;11.30;99.90;;;;;;5051611;28;20040;-77
2023/03/24 02:13:03;;;;;;;9.63;5.30;;;11.30;99.90;;;;;;5033493;28;20513;-77
2023/03/24 02:15:32;;;;;;;8.98;5.43;;;11.30;99.90;;;;;;5031538;28;20535;-76
2023/03/24 02:18:04;;;;;;;9.27;5.57;;;11.40;99.90;;;;;;5051535;28;20044;-76
2023/03/24 02:20:52;;;;;;;7.85;5.25;;;11.30;99.90;;;;;;5051297;28;20142;-76
2023/03/24 02:23:30;;;;;;;9.27;5.35;;;11.30;99.90;;;;;;5033361;28;20041;-76
2023/03/24 02:26:27;;;;;;;8.82;5.75;;;11.40;99.90;;;;;;5037384;28;20120;-76
2023/03/24 02:29:11;;;;;;;10.30;5.68;;;11.40;99.90;;;;;;5036921;28;20029;-77
2023/03/24 02:32:07;;;;;;;11.65;5.63;;;11.40;99.90;;;;;;5037794;28;20482;-76
2023/03/24 02:34:39;;;;;;;10.05;5.68;;;11.40;99.90;;;;;;5054573;28;20048;-76
2023/03/24 02:37:11;;;;;;;9.48;5.65;;;11.40;99.90;;;;;;5037498;28;20200;-74
2023/03/24 02:39:43;;;;;;;13.10;6.43;;;11.40;99.90;;;;;;5055357;28;20044;-75
2023/03/24 02:42:30;;;;;;;10.23;6.50;;;11.40;99.90;;;;;;5036582;28;20053;-75
2023/03/24 02:45:22;;;;;;;9.32;5.15;;;11.40;99.90;;;;;;5037692;28;20071;-75
2023/03/24 02:48:22;;;;;;;12.35;6.63;;;11.40;99.90;;;;;;5049727;28;20056;-76
2023/03/24 02:51:05;;;;;;;8.40;5.57;;;11.50;99.90;;;;;;4999511;28;20049;-76
2023/03/24 02:53:39;;;;;;;8.50;4.95;;;11.50;99.90;;;;;;5055277;28;20037;-76
2023/03/24 02:56:28;;;;;;;9.98;5.75;;;11.60;99.90;;;;;;5036171;28;20037;-76
2023/03/24 02:58:58;;;;;;;7.13;4.95;;;11.60;99.90;;;;;;5008865;28;20033;-76
2023/03/24 03:01:52;;;;;;;8.05;4.78;;;11.60;99.90;;;;;;5017226;28;20045;-74
2023/03/24 03:04:22;;;;;;;10.20;4.82;;;11.60;99.90;;;;;;5034126;28;20080;-75
2023/03/24 03:06:55;;;;;;;5.55;3.47;;;11.50;99.90;;;;;;5017305;28;20041;-74
2023/03/24 03:09:22;;;;;;;6.40;3.55;;;11.40;99.90;;;;;;5000317;28;20038;-74
2023/03/24 03:11:51;;;;;;;6.47;3.17;;;11.40;99.90;;;;;;5000056;28;20037;-75
2023/03/24 03:14:23;;;;;;;6.68;3.35;;;11.30;99.90;;;;;;5016604;28;20038;-74
2023/03/24 03:17:01;;;;;;;7.03;3.40;;;11.20;99.90;;;;;;5016639;28;20037;-75
2023/03/24 03:19:52;;;;;;;5.80;3.20;;;11.10;99.90;;;;;;5000564;28;20187;-74
2023/03/24 03:22:23;;;;;;;9.55;3.53;;;11.10;99.90;;;;;;5016364;28;20041;-74
2023/03/24 03:24:52;;;;;;;6.82;2.70;;;11.10;99.90;;;;;;5016278;28;20037;-74
2023/03/24 03:27:26;;;;;;;8.40;3.22;;;11.00;99.90;;;;;;5000145;28;20045;-74
2023/03/24 03:29:59;;;;;;;8.52;2.60;;;10.90;99.90;;;;;;5017011;28;20052;-74
2023/03/24 03:32:34;;;;;;;8.73;2.42;;;10.90;99.90;;;;;;5016203;28;20049;-74
2023/03/24 03:35:13;;;;;;;7.72;2.88;;;10.90;99.90;;;;;;5017066;28;20100;-73
2023/03/24 03:37:50;;;;;;;5.45;2.17;;;10.80;99.90;;;;;;5016319;28;20038;-73
2023/03/24 03:40:48;;;;;;;6.15;2.15;;;10.80;99.90;;;;;;4999798;28;20442;-74
2023/03/24 03:43:15;;;;;;;8.63;2.33;;;10.70;99.90;;;;;;5016402;28;20082;-74
2023/03/24 03:45:40;;;;;;;11.63;2.85;;;10.60;99.90;;;;;;5015874;28;20045;-74
2023/03/24 03:48:06;;;;;;;11.23;2.45;;;10.60;99.90;;;;;;4999997;28;20042;-74
2023/03/24 03:50:32;;;;;;;9.23;2.50;;;10.60;99.90;;;;;;5016483;28;20037;-74
2023/03/24 03:52:59;;;;;;;8.10;2.80;;;10.50;99.90;;;;;;4999605;28;20494;-74
2023/03/24 03:55:26;;;;;;;12.95;3.20;;;10.40;99.90;;;;;;5033701;28;20510;-74
2023/03/24 03:57:53;;;;;;;10.77;2.72;;;10.40;99.90;;;;;;5034011;28;20502;-74
2023/03/24 04:00:21;;;;;;;9.25;2.83;;;10.40;99.90;;;;;;5015170;28;20041;-74
2023/03/24 04:03:05;;;;;;;7.68;2.50;;;10.40;99.90;;;;;;5016671;28;20048;-73
2023/03/24 04:05:47;;;;;;;7.65;2.58;;;10.30;99.90;;;;;;5034190;28;20044;-74
2023/03/24 04:08:22;;;;;;;10.38;3.65;;;10.20;99.90;;;;;;5014669;28;20033;-73
2023/03/24 04:11:06;;;;;;;;;;;10.20;99.90;;;;;;5016588;28;20487;-74
2023/03/24 04:13:40;;;;;;;10.40;2.85;;;10.10;99.90;;;;;;5015281;28;19925;-74
2023/03/24 04:16:28;;;;;;;8.43;2.83;;;10.00;99.90;;;;;;5015806;28;20095;-74
2023/03/24 04:19:20;;;;;;;9.93;2.45;;;10.00;99.90;;;;;;5033724;28;20056;-74
2023/03/24 04:21:55;;;;;;;9.23;2.30;;;9.90;99.90;;;;;;5015561;28;20044;-74
2023/03/24 04:24:31;;;;;;;9.98;3.50;;;9.90;99.90;;;;;;5015537;28;20041;-75
2023/03/24 04:27:29;;;;;;;12.15;2.55;;;9.80;99.90;;;;;;4998958;28;20060;-74
2023/03/24 04:30:05;;;;;;;8.18;2.70;;;9.70;99.90;;;;;;5016925;28;20118;-75
2023/03/24 04:32:45;;;;;;;11.63;3.03;;;9.70;99.90;;;;;;5019337;28;20093;-75
2023/03/24 04:35:30;;;;;;;9.40;2.55;;;9.60;99.90;;;;;;5034700;28;20041;-75
2023/03/24 04:38:01;;;;;;;16.30;3.90;;;9.60;99.90;;;;;;5034935;28;20044;-73
2023/03/24 04:40:31;;;;;;;12.73;3.10;;;9.60;99.90;;;;;;5018586;28;20060;-75
2023/03/24 04:43:00;;;;;;;12.98;3.80;;;9.50;99.90;;;;;;5018099;28;20079;-74
2023/03/24 04:45:27;;;;;;;13.45;4.13;;;9.50;99.90;;;;;;5052898;28;20040;-74
2023/03/24 04:47:57;;;;;;;13.57;2.83;;;9.40;99.90;;;;;;5017164;28;20119;-74
2023/03/24 04:50:52;;;;;;;14.18;3.50;;;9.40;99.90;;;;;;5033957;28;20464;-74
2023/03/24 04:53:18;;;;;;;22.73;3.42;;;9.40;99.90;;;;;;5043083;28;20107;-75
2023/03/24 04:55:49;;;;;;;13.98;3.35;;;9.40;99.90;;;;;;5034324;28;20049;-74
2023/03/24 04:58:16;;;;;;;10.65;3.17;;;9.40;99.90;;;;;;5017501;28;20127;-74
2023/03/24 05:00:42;;;;;;;17.13;4.25;;;9.40;99.90;;;;;;5035198;28;20840;-74
2023/03/24 05:03:12;;;;;;;14.65;3.85;;;9.40;99.90;;;;;;5033872;28;20079;-74
2023/03/24 05:05:40;;;;;;;13.98;3.72;;;9.40;99.90;;;;;;5034867;28;20445;-74
2023/03/24 05:08:07;;;;;;;11.30;3.05;;;9.40;99.90;;;;;;5051677;28;20029;-74
2023/03/24 05:10:34;;;;;;;21.45;3.75;;;9.40;99.90;;;;;;5018079;28;20461;-75
2023/03/24 05:13:00;;;;;;;13.63;3.17;;;9.40;99.90;;;;;;5030323;28;20045;-75
2023/03/24 05:15:26;;;;;;;15.45;3.00;;;9.30;99.90;;;;;;5036512;28;20083;-75
2023/03/24 05:17:52;;;;;;;10.48;2.75;;;9.30;99.90;;;;;;5052285;28;20037;-75
2023/03/24 05:20:17;;;;;;;16.77;4.32;;;9.30;99.90;;;;;;5016691;28;20114;-75
2023/03/24 05:22:44;;;;;;;11.55;3.20;;;9.30;99.90;;;;;;5052983;28;20045;-75
2023/03/24 05:25:10;;;;;;;11.45;2.45;;;9.30;99.90;;;;;;5051520;28;20056;-75
2023/03/24 05:27:35;;;;;;;10.70;2.92;;;9.30;99.90;;;;;;5018401;28;20051;-74
2023/03/24 05:30:01;;;;;;;18.63;3.88;;;9.30;99.90;;;;;;5035811;28;20033;-75
2023/03/24 05:32:27;;;;;;;11.02;3.15;;;9.30;99.90;;;;;;5014126;28;20049;-75
2023/03/24 05:34:53;;;;;;;18.40;4.30;;;9.20;99.90;;;;;;4998753;28;20048;-75
2023/03/24 05:37:19;;;;;;;16.00;4.63;;;9.20;99.90;;;;;;4997551;28;20088;-75
2023/03/24 05:39:45;;;;;;;14.02;3.55;;;9.20;99.90;;;;;;5012861;28;20051;-74
2023/03/24 05:42:10;;;;;;;15.38;3.80;;;9.10;99.90;;;;;;5034183;28;20090;-75
2023/03/24 05:44:36;;;;;;;17.45;4.47;;;9.10;99.90;;;;;;5034159;28;20122;-75
2023/03/24 05:47:03;;;;;;;18.60;4.95;;;9.10;99.90;;;;;;5052582;28;20128;-74
2023/03/24 05:49:29;;;;;;;12.88;2.90;;;9.00;99.90;;;;;;5017785;28;20076;-74
2023/03/24 05:51:55;;;;;;;13.98;4.40;;;9.00;99.90;;;;;;5017554;28;20068;-74
2023/03/24 05:54:21;;;;;;;21.25;5.20;;;9.00;99.90;;;;;;5018160;28;20045;-75
2023/03/24 05:56:47;;;;;;;18.77;4.10;;;9.10;99.90;;;;;;5052560;28;20481;-75
2023/03/24 05:59:13;;;;;;;10.65;3.35;;;9.00;99.90;;;;;;5016836;28;20098;-75
2023/03/24 06:01:41;;;;;;;14.50;3.60;;;9.00;99.90;;;;;;5034542;28;20485;-75
2023/03/24 06:04:07;;;;;;;14.63;3.80;;;9.00;99.90;;;;;;5033992;28;20044;-75
2023/03/24 06:06:33;;;;;;;15.35;4.03;;;9.00;99.90;;;;;;5041732;28;20107;-75
2023/03/24 06:09:01;;;;;;;18.30;4.28;;;9.10;99.90;;;;;;5015066;28;20041;-76
2023/03/24 06:11:27;;;;;;;16.45;3.42;;;9.10;99.90;;;;;;5014410;28;20046;-76
2023/03/24 06:13:57;;;;;;;15.00;3.85;;;9.10;99.90;;;;;;5014295;28;20037;-75
2023/03/24 06:16:25;;;;;;;17.65;4.78;;;9.10;99.90;;;;;;4998328;28;20422;-75
2023/03/24 06:18:53;;;;;;;13.57;4.32;;;9.10;99.90;;;;;;5014573;28;20034;-75
2023/03/24 06:21:20;;;;;;;11.20;3.13;;;9.10;99.90;;;;;;5013630;28;20045;-75
2023/03/24 06:23:46;;;;;;;15.43;4.45;;;9.10;99.90;;;;;;5014648;28;20509;-75
2023/03/24 06:26:13;;;;;;;16.88;3.53;;;9.10;99.90;;;;;;5014181;28;20042;-75
2023/03/24 06:28:40;;;;;;;13.40;3.13;;;9.10;99.90;;;;;;5014166;28;20037;-74
2023/03/24 06:31:13;;;;;;;13.70;3.90;;;9.10;99.90;;;;;;4997914;28;20068;-74
2023/03/24 06:33:41;;;;;;;10.15;3.42;;;9.20;99.90;;;;;;5042635;28;20080;-74
2023/03/24 06:36:07;;;;;;;11.18;4.20;;;9.20;99.90;;;;;;5014123;28;20049;-74
2023/03/24 06:38:33;;;;;;;14.48;3.50;;;9.20;99.90;;;;;;5010116;28;20084;-74
2023/03/24 06:41:00;;;;;;;12.55;3.85;;;9.20;99.90;;;;;;5016018;28;20123;-74
2023/03/24 06:43:26;;;;;;;12.80;3.53;;;9.30;99.90;;;;;;5025087;28;20062;-74
2023/03/24 06:45:52;;;;;;;10.85;3.40;;;9.30;99.90;;;;;;5015017;28;20046;-74
2023/03/24 06:48:18;;;;;;;13.75;3.65;;;9.30;99.90;;;;;;5009135;28;20042;-76
2023/03/24 06:50:44;;;;;;;12.38;3.33;;;9.30;99.90;;;;;;5012197;28;20038;-75
2023/03/24 06:53:09;;;;;;;13.52;4.20;;;9.40;99.90;;;;;;4977325;28;20483;-75
2023/03/24 06:55:35;;;;;;;11.63;3.75;;;9.40;99.90;;;;;;4994222;28;20084;-75
2023/03/24 06:58:01;;;;;;;17.75;4.53;;;9.40;99.90;;;;;;4994027;28;20042;-76
2023/03/24 07:00:28;;;;;;;16.70;3.70;;;9.40;99.90;;;;;;4994079;28;20040;-75
2023/03/24 07:02:54;;;;;;;14.38;3.95;;;9.40;99.90;;;;;;5021032;28;20037;-77
2023/03/24 07:05:21;;;;;;;16.38;4.05;;;9.50;99.90;;;;;;5011977;28;20049;-76
2023/03/24 07:07:48;;;;;;;14.30;4.20;;;9.50;99.90;;;;;;5032158;28;20033;-77
2023/03/24 07:10:15;;;;;;;16.83;3.53;;;9.50;99.90;;;;;;5013312;28;20140;-76
2023/03/24 07:12:41;;;;;;;19.17;4.22;;;9.60;99.90;;;;;;5034645;28;20033;-75
2023/03/24 07:15:08;;;;;;;15.85;3.95;;;9.60;99.90;;;;;;5016962;28;20079;-75
2023/03/24 07:17:35;;;;;;;15.38;3.55;;;9.60;99.90;;;;;;5009544;28;20042;-76
2023/03/24 07:20:01;;;;;;;11.85;3.33;;;9.70;99.90;;;;;;4995741;28;20112;-77
2023/03/24 07:22:26;;;;;;;19.05;3.67;;;9.70;99.90;;;;;;5014164;28;20057;-76
2023/03/24 07:24:52;;;;;;;13.77;4.03;;;9.80;99.90;;;;;;4997113;28;20676;-76
2023/03/24 07:27:18;;;;;;;13.27;3.80;;;9.80;99.90;;;;;;4996913;28;20034;-76
2023/03/24 07:29:43;;;;;;;17.35;4.13;;;9.80;99.90;;;;;;4998066;28;20121;-75
2023/03/24 07:32:09;;;;;;;16.30;3.55;;;9.80;99.90;;;;;;5002046;28;20092;-75
2023/03/24 07:34:48;;;;;;;14.88;3.90;;;9.80;99.90;;;;;;5016770;28;20056;-75
2023/03/24 07:37:14;;;;;;;15.45;4.75;;;9.80;99.90;;;;;;5020640;28;20042;-74
2023/03/24 07:39:40;;;;;;;21.40;5.78;;;9.80;99.90;;;;;;5008032;28;20447;-76
2023/03/24 07:42:05;;;;;;;10.63;4.20;;;9.80;99.90;;;;;;4991676;28;20104;-76
2023/03/24 07:44:31;;;;;;;21.13;4.72;;;9.80;99.90;;;;;;5016547;28;20072;-76
2023/03/24 07:46:57;;;;;;;12.52;3.35;;;9.90;99.90;;;;;;5015649;28;20037;-76
2023/03/24 07:49:22;;;;;;;22.00;4.68;;;9.90;99.90;;;;;;5033917;28;20037;-76
2023/03/24 07:51:48;;;;;;;14.85;4.15;;;9.90;99.90;;;;;;4984478;28;20060;-76
2023/03/24 07:54:15;;;;;;;17.30;4.85;;;9.90;99.90;;;;;;4996470;28;20479;-76
2023/03/24 07:56:40;;;;;;;15.55;3.92;;;9.90;99.90;;;;;;4996808;28;20083;-76
2023/03/24 07:59:08;;;;;;;15.32;4.18;;;10.00;99.90;;;;;;5013851;28;20121;-76
2023/03/24 08:01:35;;;;;;;21.73;4.30;;;10.00;99.90;;;;;;4998040;28;20063;-76
2023/03/24 08:04:03;;;;;;;16.92;4.20;;;10.10;99.90;;;;;;5020730;28;20045;-78
2023/03/24 08:06:29;;;;;;;12.93;4.03;;;10.10;99.90;;;;;;5012372;28;20441;-76
2023/03/24 08:08:55;;;;;;;19.15;5.85;;;10.10;99.90;;;;;;4996812;28;20092;-75
2023/03/24 08:11:21;;;;;;;21.65;5.03;;;10.20;99.90;;;;;;5016436;28;20096;-77
2023/03/24 08:13:47;;;;;;;18.52;4.10;;;10.20;99.90;;;;;;5015424;28;20547;-77
2023/03/24 08:16:12;;;;;;;20.25;4.75;;;10.20;99.90;;;;;;5015413;28;20041;-77
2023/03/24 08:18:38;;;;;;;17.08;4.15;;;10.30;99.90;;;;;;5033912;28;20087;-76
2023/03/24 08:21:04;;;;;;;14.93;4.50;;;10.30;99.90;;;;;;5011819;28;20037;-76
2023/03/24 08:23:30;;;;;;;19.98;5.40;;;10.30;99.90;;;;;;5010114;28;20132;-77
2023/03/24 08:25:56;;;;;;;17.70;4.22;;;10.40;99.90;;;;;;4997751;28;20048;-77
2023/03/24 08:28:22;;;;;;;20.55;4.35;;;10.40;99.90;;;;;;5012119;28;20061;-77
2023/03/24 08:30:47;;;;;;;25.10;5.13;;;10.40;99.90;;;;;;5012658;28;20132;-77
2023/03/24 08:33:15;;;;;;;15.15;4.18;;;10.40;99.90;;;;;;5011780;28;20065;-76
2023/03/24 08:35:41;;;;;;;14.60;3.88;;;10.40;99.90;;;;;;5012580;28;20053;-77
2023/03/24 08:38:08;;;;;;;12.30;4.00;;;10.40;99.90;;;;;;5011826;28;20124;-77
2023/03/24 08:40:36;;;;;;;19.55;4.82;;;10.40;99.90;;;;;;5006358;28;20063;-76
2023/03/24 08:43:07;;;;;;;13.40;4.28;;;10.30;99.90;;;;;;5050042;28;20080;-77
2023/03/24 08:45:33;;;;;;;14.98;4.18;;;10.40;99.90;;;;;;5032202;28;20048;-77
2023/03/24 08:48:01;;;;;;;14.85;4.03;;;10.50;99.90;;;;;;5035367;28;20453;-77
2023/03/24 08:50:31;;;;;;;21.88;4.50;;;10.50;99.90;;;;;;5017672;28;20033;-77
2023/03/24 08:52:57;;;;;;;18.48;4.97;;;10.60;99.90;;;;;;5015541;28;20044;-77
2023/03/24 08:55:23;;;;;;;16.50;4.68;;;10.60;99.90;;;;;;5014468;28;20044;-77
2023/03/24 08:57:49;;;;;;;15.73;4.30;;;10.60;99.90;;;;;;5031878;28;20456;-77
2023/03/24 09:00:19;;;;;;;19.85;4.65;;;10.70;99.90;;;;;;5031761;28;20054;-77
2023/03/24 09:02:51;;;;;;;21.40;4.53;;;10.70;99.90;;;;;;5031624;28;20405;-77
2023/03/24 09:05:18;;;;;;;17.27;4.45;;;10.70;99.90;;;;;;5029693;28;20045;-77
2023/03/24 09:07:45;;;;;;;23.20;5.25;;;10.70;99.90;;;;;;5050001;28;20448;-78
2023/03/24 09:10:12;;;;;;;13.40;4.50;;;10.80;99.90;;;;;;5048743;28;20033;-78
2023/03/24 09:12:38;;;;;;;22.25;5.75;;;11.00;99.90;;;;;;5032248;28;20045;-77
2023/03/24 09:15:05;;;;;;;16.27;4.07;;;11.10;99.90;;;;;;5032134;28;20033;-77
2023/03/24 09:17:32;;;;;;;17.83;4.60;;;11.10;99.90;;;;;;5014488;28;20040;-78
2023/03/24 09:19:57;;;;;;;16.63;3.70;;;11.20;99.90;;;;;;5011898;28;20041;-77
2023/03/24 09:22:23;;;;;;;14.18;3.53;;;11.30;99.90;;;;;;5006470;28;20405;-78
2023/03/24 09:24:49;;;;;;;10.35;3.47;;;11.30;99.90;;;;;;5031128;28;20037;-77
2023/03/24 09:27:16;;;;;;;14.38;3.90;;;11.20;99.90;;;;;;5030895;28;20044;-76
2023/03/24 09:29:42;;;;;;;11.35;3.03;;;11.10;99.90;;;;;;5030812;28;20581;-76
2023/03/24 09:32:08;;;;;;;15.20;3.92;;;11.00;99.90;;;;;;5010041;28;20048;-76
2023/03/24 09:34:36;;;;;;;12.10;3.67;;;11.10;99.90;;;;;;5035440;28;20493;-77
2023/03/24 09:37:01;;;;;;;17.58;4.13;;;11.10;99.90;;;;;;5029592;28;20052;-77
2023/03/24 09:39:27;;;;;;;12.88;3.88;;;11.30;99.90;;;;;;5026101;28;20103;-78
2023/03/24 09:41:54;;;;;;;13.07;3.33;;;11.50;99.90;;;;;;5030841;28;20053;-78
2023/03/24 09:44:43;;;;;;;12.23;3.17;;;11.60;99.90;;;;;;5013275;28;20080;-78
2023/03/24 09:47:28;;;;;;;13.70;4.22;;;11.70;99.90;;;;;;5013401;28;20052;-77
2023/03/24 09:50:00;;;;;;;10.65;3.00;;;11.80;99.90;;;;;;5014683;28;20095;-74
2023/03/24 09:52:35;;;;;;;11.45;3.63;;;11.80;99.90;;;;;;5013632;28;20046;-73
2023/03/24 09:55:01;;;;;;;15.05;3.20;;;11.80;99.90;;;;;;5012827;28;20087;-75
2023/03/24 09:57:39;;;;;;;16.15;3.35;;;11.80;99.90;;;;;;5032054;28;20069;-75
2023/03/24 10:00:23;;;;;;;15.93;3.95;;;11.90;99.90;;;;;;5031283;28;20038;-76
2023/03/24 10:02:50;;;;;;;14.75;4.28;;;12.00;99.90;;;;;;4998415;28;20132;-77
2023/03/24 10:05:39;;;;;;;8.88;3.50;;;11.90;99.90;;;;;;5014081;28;20045;-78
2023/03/24 10:08:16;;;;;;;16.00;3.92;;;11.90;99.90;;;;;;4982015;28;20046;-77
2023/03/24 10:11:27;;;;;;;11.20;3.05;;;12.00;99.90;;;;;;5012501;28;20395;-73
2023/03/24 10:14:14;;;;;;;13.68;3.58;;;12.10;99.90;;;;;;4975805;28;20406;-73
2023/03/24 10:17:04;;;;;;;11.40;3.53;;;12.10;99.90;;;;;;5012470;28;20053;-74
2023/03/24 10:19:29;;;;;;;13.35;3.72;;;12.20;99.90;;;;;;4995037;28;20042;-74
2023/03/24 10:22:20;;;;;;;15.35;3.70;;;12.30;99.90;;;;;;5014430;28;20060;-75
2023/03/24 10:25:07;;;;;;;14.50;4.18;;;12.40;99.90;;;;;;4976405;28;20053;-74
2023/03/24 10:27:41;;;;;;;16.13;4.88;;;12.50;99.90;;;;;;5006156;28;20038;-76
2023/03/24 10:30:19;;;;;;;15.10;3.45;;;12.40;99.90;;;;;;5008462;28;20117;-75
2023/03/24 10:32:45;;;;;;;10.88;4.32;;;12.20;99.90;;;;;;5021752;28;20397;-75
2023/03/24 10:35:27;;;;;;;17.42;5.28;;;12.10;99.90;;;;;;5016471;28;20038;-75
2023/03/24 10:37:57;;;;;;;16.88;3.53;;;12.10;99.90;;;;;;5028924;28;20140;-75
2023/03/24 10:40:30;;;;;;;14.05;3.38;;;12.00;99.90;;;;;;5011860;28;20421;-75
2023/03/24 10:42:58;;;;;;;15.05;4.22;;;12.00;99.90;;;;;;5049225;28;20483;-74
2023/03/24 10:45:35;;;;;;;15.43;4.85;;;12.00;99.90;;;;;;5015274;28;20028;-74
2023/03/24 10:48:02;;;;;;;20.70;4.82;;;12.10;99.90;;;;;;5034721;28;20128;-74
2023/03/24 10:50:31;;;;;;;11.95;3.72;;;12.40;99.90;;;;;;5050475;28;20197;-74
2023/03/24 10:52:57;;;;;;;14.80;3.17;;;12.60;99.90;;;;;;5033962;28;20029;-76
2023/03/24 10:55:35;;;;;;;15.18;3.30;;;12.70;99.90;;;;;;5050915;28;20037;-76
2023/03/24 10:58:01;;;;;;;19.15;4.72;;;12.60;99.90;;;;;;5018280;28;20048;-76
2023/03/24 11:00:30;;;;;;;11.00;3.63;;;12.50;99.90;;;;;;5033467;28;20037;-75
2023/03/24 11:03:11;;;;;;;19.15;4.13;;;12.60;99.90;;;;;;5031405;28;20033;-75
2023/03/24 11:05:39;;;;;;;17.83;5.00;;;12.60;99.90;;;;;;5035491;28;20041;-75
2023/03/24 11:08:36;;;;;;;17.35;3.35;;;12.70;99.90;;;;;;5034832;28;20034;-75
2023/03/24 11:11:14;;;;;;;11.40;3.17;;;12.70;99.90;;;;;;5021471;28;20110;-76
2023/03/24 11:13:39;;;;;;;16.60;3.50;;;12.60;99.90;;;;;;5053656;28;20037;-76
2023/03/24 11:16:14;;;;;;;17.45;3.28;;;12.60;99.90;;;;;;5018585;28;20037;-76
2023/03/24 11:18:54;;;;;;;;;;;12.50;99.90;;;;;;5054434;28;20367;-75
2023/03/24 11:21:20;;;;;;;15.25;3.92;;;12.60;99.90;;;;;;5028205;28;19921;-76
2023/03/24 11:23:45;;;;;;;17.10;4.28;;;12.80;99.90;;;;;;5048124;28;20037;-75
2023/03/24 11:26:15;;;;;;;17.02;4.55;;;12.70;99.90;;;;;;5026561;28;20290;-71
2023/03/24 11:28:54;;;;;;;12.15;2.42;;;12.70;99.90;;;;;;5019500;28;20087;-74
2023/03/24 11:31:24;;;;;;;12.68;3.10;;;12.50;99.90;;;;;;5053170;28;20051;-72
2023/03/24 11:34:10;;;;;;;15.27;3.38;;;12.40;99.90;;;;;;5008988;28;20455;-74
2023/03/24 11:36:36;;;;;;;13.88;3.78;;;12.30;99.90;;;;;;5026824;28;20045;-72
2023/03/24 11:39:23;;;;;;;22.42;4.22;;;12.20;99.90;;;;;;5034433;28;20045;-72
2023/03/24 11:41:59;;;;;;;14.23;3.20;;;12.10;99.90;;;;;;5053068;28;20401;-73
2023/03/24 11:44:25;;;;;;;12.43;3.33;;;12.30;99.90;;;;;;5028242;28;20121;-73
2023/03/24 11:47:28;;;;;;;12.23;4.53;;;12.40;99.90;;;;;;5031473;28;20037;-72
2023/03/24 11:50:16;;;;;;;17.40;4.10;;;12.60;99.90;;;;;;5019804;28;20045;-75
2023/03/24 11:52:51;;;;;;;16.73;4.07;;;12.80;99.90;;;;;;5018693;28;20052;-71
2023/03/24 11:55:36;;;;;;;11.38;2.85;;;12.90;99.90;;;;;;5035103;28;20072;-73
2023/03/24 11:58:12;;;;;;;14.88;4.63;;;13.10;99.90;;;;;;5025645;28;20569;-72
2023/03/24 12:01:06;;;;;;;14.48;3.38;;;13.10;99.90;;;;;;5027155;28;20044;-72
2023/03/24 12:03:45;;;;;;;12.60;2.77;;;13.20;99.90;;;;;;4999595;28;20404;-71
2023/03/24 12:06:42;;;;;;;10.70;3.10;;;13.10;99.90;;;;;;5041200;28;20464;-72
2023/03/24 12:09:39;;;;;;;15.73;3.15;;;13.10;99.90;;;;;;5032295;28;20036;-71
2023/03/24 12:12:41;;;;;;;12.25;2.92;;;13.10;99.90;;;;;;5032683;28;20052;-72
2023/03/24 12:15:19;;;;;;;10.75;2.78;;;13.10;99.90;;;;;;5032252;28;20041;-71
2023/03/24 12:18:07;;;;;;;16.02;3.38;;;13.10;99.90;;;;;;5032993;28;20053;-73
2023/03/24 12:21:15;;;;;;;12.90;3.25;;;13.00;99.90;;;;;;5016105;28;20131;-73
2023/03/24 12:24:05;;;;;;;10.07;3.13;;;12.90;99.90;;;;;;5033462;28;20044;-74
2023/03/24 12:26:32;;;;;;;15.82;3.35;;;12.90;99.90;;;;;;5032454;28;20041;-74
2023/03/24 12:29:18;;;;;;;15.52;3.83;;;12.90;99.90;;;;;;5010629;28;20033;-73
2023/03/24 12:32:18;;;;;;;9.95;3.53;;;12.90;99.90;;;;;;5031090;28;20065;-71
2023/03/24 12:35:11;;;;;;;13.48;3.25;;;12.90;99.90;;;;;;5030451;28;20103;-72
2023/03/24 12:37:46;;;;;;;9.45;2.63;;;13.00;99.90;;;;;;5013446;28;20053;-72
2023/03/24 12:40:55;;;;;;;12.40;3.70;;;13.00;99.90;;;;;;5026391;28;20065;-73
2023/03/24 12:44:06;;;;;;;15.70;3.92;;;13.00;99.90;;;;;;5032339;28;20114;-72
2023/03/24 12:46:49;;;;;;;10.77;2.83;;;13.10;99.90;;;;;;4971035;28;20485;-72
2023/03/24 12:49:22;;;;;;;13.82;3.40;;;13.00;99.90;;;;;;5034572;28;20045;-73
2023/03/24 12:52:03;;;;;;;7.82;2.47;;;13.00;99.90;;;;;;5035496;28;20049;-72
2023/03/24 12:54:44;;;;;;;21.48;3.60;;;13.10;99.90;;;;;;5034447;28;20045;-72
2023/03/24 12:57:17;;;;;;;11.88;3.15;;;13.00;99.90;;;;;;5017139;28;20044;-71
2023/03/24 12:59:46;;;;;;;16.25;3.90;;;13.00;99.90;;;;;;5033134;28;20386;-73
2023/03/24 13:02:25;;;;;;;18.48;3.65;;;13.00;99.90;;;;;;5013895;28;20041;-73
2023/03/24 13:04:54;;;;;;;10.82;2.92;;;13.10;99.90;;;;;;5015460;28;20037;-73
2023/03/24 13:07:27;;;;;;;12.07;3.20;;;13.20;99.90;;;;;;5014550;28;20072;-74